sensor_id;sensor_type;location;lat;lon;timestamp;P1;durP1;ratioP1;P2;durP2;ratioP2
29854;SDS011;16733;48.738;9.106;2022-09-25T00:00:00;21.60;;;10.32;;
29854;SDS011;16733;48.738;9.106;2022-09-25T00:02:26;38.45;;;9.88;;
29854;SDS011;16733;48.738;9.106;2022-09-25T00:04:52;18.77;;;10.23;;
29854;SDS011;16733;48.738;9.106;2022-09-25T00:07:17;16.35;;;10.20;;
29854;SDS011;16733;48.738;9.106;2022-09-25T00:13:05;29.67;;;10.77;;
29854;SDS011;16733;48.738;9.106;2022-09-25T00:15:30;21.05;;;11.40;;
29854;SDS011;16733;48.738;9.106;2022-09-25T00:17:56;19.65;;;11.05;;
29854;SDS011;16733;48.738;9.106;2022-09-25T00:20:22;20.25;;;11.68;;
29854;SDS011;16733;48.738;9.106;2022-09-25T00:22:50;19.17;;;10.52;;
29854;SDS011;16733;48.738;9.106;2022-09-25T00:25:18;19.45;;;10.23;;
29854;SDS011;16733;48.738;9.106;2022-09-25T00:27:44;19.92;;;10.38;;
29854;SDS011;16733;48.738;9.106;2022-09-25T00:30:11;20.70;;;10.80;;
29854;SDS011;16733;48.738;9.106;2022-09-25T00:36:07;20.08;;;10.55;;
29854;SDS011;16733;48.738;9.106;2022-09-25T00:38:35;18.85;;;10.80;;
29854;SDS011;16733;48.738;9.106;2022-09-25T00:47:07;20.42;;;9.65;;
29854;SDS011;16733;48.738;9.106;2022-09-25T00:52:44;17.23;;;10.18;;
29854;SDS011;16733;48.738;9.106;2022-09-25T00:55:11;31.58;;;11.35;;
29854;SDS011;16733;48.738;9.106;2022-09-25T01:00:59;17.02;;;10.60;;
29854;SDS011;16733;48.738;9.106;2022-09-25T01:03:25;18.17;;;10.55;;
29854;SDS011;16733;48.738;9.106;2022-09-25T01:05:51;17.70;;;10.20;;
29854;SDS011;16733;48.738;9.106;2022-09-25T01:08:19;19.42;;;10.50;;
29854;SDS011;16733;48.738;9.106;2022-09-25T01:10:47;17.90;;;9.70;;
29854;SDS011;16733;48.738;9.106;2022-09-25T01:13:13;15.18;;;9.55;;
29854;SDS011;16733;48.738;9.106;2022-09-25T01:26:47;16.35;;;10.18;;
29854;SDS011;16733;48.738;9.106;2022-09-25T01:29:44;18.40;;;9.90;;
29854;SDS011;16733;48.738;9.106;2022-09-25T01:40:48;16.65;;;9.68;;
29854;SDS011;16733;48.738;9.106;2022-09-25T01:43:17;18.58;;;9.68;;
29854;SDS011;16733;48.738;9.106;2022-09-25T01:45:52;15.82;;;9.60;;
29854;SDS011;16733;48.738;9.106;2022-09-25T01:55:11;15.90;;;8.95;;
29854;SDS011;16733;48.738;9.106;2022-09-25T01:57:43;14.68;;;8.18;;
29854;SDS011;16733;48.738;9.106;2022-09-25T02:00:17;14.40;;;7.97;;
29854;SDS011;16733;48.738;9.106;2022-09-25T02:02:47;14.18;;;7.50;;
29854;SDS011;16733;48.738;9.106;2022-09-25T02:05:21;15.55;;;8.23;;
29854;SDS011;16733;48.738;9.106;2022-09-25T02:08:06;13.15;;;8.07;;
29854;SDS011;16733;48.738;9.106;2022-09-25T02:14:01;16.35;;;9.00;;
29854;SDS011;16733;48.738;9.106;2022-09-25T02:16:36;12.73;;;7.93;;
29854;SDS011;16733;48.738;9.106;2022-09-25T02:19:07;15.88;;;8.75;;
29854;SDS011;16733;48.738;9.106;2022-09-25T02:22:00;18.10;;;9.30;;
29854;SDS011;16733;48.738;9.106;2022-09-25T02:24:44;18.15;;;8.27;;
29854;SDS011;16733;48.738;9.106;2022-09-25T02:27:21;22.43;;;10.13;;
29854;SDS011;16733;48.738;9.106;2022-09-25T02:29:48;16.75;;;9.20;;
29854;SDS011;16733;48.738;9.106;2022-09-25T02:32:18;16.90;;;9.50;;
29854;SDS011;16733;48.738;9.106;2022-09-25T02:34:48;18.92;;;9.57;;
29854;SDS011;16733;48.738;9.106;2022-09-25T02:37:14;20.30;;;9.43;;
29854;SDS011;16733;48.738;9.106;2022-09-25T02:55:05;19.98;;;9.73;;
29854;SDS011;16733;48.738;9.106;2022-09-25T02:57:44;17.40;;;9.73;;
29854;SDS011;16733;48.738;9.106;2022-09-25T03:00:11;17.52;;;9.45;;
29854;SDS011;16733;48.738;9.106;2022-09-25T03:02:38;15.45;;;8.18;;
29854;SDS011;16733;48.738;9.106;2022-09-25T03:05:05;16.90;;;8.82;;
29854;SDS011;16733;48.738;9.106;2022-09-25T03:07:34;15.15;;;8.55;;
29854;SDS011;16733;48.738;9.106;2022-09-25T03:10:20;18.60;;;9.32;;
29854;SDS011;16733;48.738;9.106;2022-09-25T03:12:47;14.93;;;8.70;;
29854;SDS011;16733;48.738;9.106;2022-09-25T03:15:12;18.35;;;9.65;;
29854;SDS011;16733;48.738;9.106;2022-09-25T03:17:38;23.17;;;9.90;;
29854;SDS011;16733;48.738;9.106;2022-09-25T03:20:04;16.80;;;9.45;;
29854;SDS011;16733;48.738;9.106;2022-09-25T03:22:31;20.83;;;10.07;;
29854;SDS011;16733;48.738;9.106;2022-09-25T03:24:56;17.67;;;9.65;;
29854;SDS011;16733;48.738;9.106;2022-09-25T03:27:23;18.52;;;9.18;;
29854;SDS011;16733;48.738;9.106;2022-09-25T03:29:54;18.42;;;9.68;;
29854;SDS011;16733;48.738;9.106;2022-09-25T03:32:19;21.02;;;9.40;;
29854;SDS011;16733;48.738;9.106;2022-09-25T03:34:45;19.20;;;9.77;;
29854;SDS011;16733;48.738;9.106;2022-09-25T03:37:11;15.07;;;9.00;;
29854;SDS011;16733;48.738;9.106;2022-09-25T03:39:36;17.08;;;9.75;;
29854;SDS011;16733;48.738;9.106;2022-09-25T03:42:02;21.17;;;9.70;;
29854;SDS011;16733;48.738;9.106;2022-09-25T03:44:28;16.45;;;9.75;;
29854;SDS011;16733;48.738;9.106;2022-09-25T03:50:16;17.58;;;9.77;;
29854;SDS011;16733;48.738;9.106;2022-09-25T03:52:42;18.58;;;10.05;;
29854;SDS011;16733;48.738;9.106;2022-09-25T03:58:30;20.48;;;10.45;;
29854;SDS011;16733;48.738;9.106;2022-09-25T04:00:56;16.27;;;9.20;;
29854;SDS011;16733;48.738;9.106;2022-09-25T04:03:25;18.02;;;10.30;;
29854;SDS011;16733;48.738;9.106;2022-09-25T04:05:52;18.30;;;9.02;;
29854;SDS011;16733;48.738;9.106;2022-09-25T04:08:23;16.52;;;9.18;;
29854;SDS011;16733;48.738;9.106;2022-09-25T04:10:51;19.65;;;9.57;;
29854;SDS011;16733;48.738;9.106;2022-09-25T04:13:20;16.50;;;7.75;;
29854;SDS011;16733;48.738;9.106;2022-09-25T04:15:46;15.82;;;7.50;;
29854;SDS011;16733;48.738;9.106;2022-09-25T04:18:11;19.10;;;8.27;;
29854;SDS011;16733;48.738;9.106;2022-09-25T04:27:22;15.38;;;9.07;;
29854;SDS011;16733;48.738;9.106;2022-09-25T04:29:48;18.23;;;8.70;;
29854;SDS011;16733;48.738;9.106;2022-09-25T04:32:14;15.55;;;8.55;;
29854;SDS011;16733;48.738;9.106;2022-09-25T04:34:59;16.17;;;8.35;;
29854;SDS011;16733;48.738;9.106;2022-09-25T04:37:26;15.70;;;8.80;;
29854;SDS011;16733;48.738;9.106;2022-09-25T04:39:55;18.48;;;9.93;;
29854;SDS011;16733;48.738;9.106;2022-09-25T04:42:21;16.10;;;9.15;;
29854;SDS011;16733;48.738;9.106;2022-09-25T04:48:10;15.90;;;9.23;;
29854;SDS011;16733;48.738;9.106;2022-09-25T04:50:35;19.50;;;9.98;;
29854;SDS011;16733;48.738;9.106;2022-09-25T04:53:01;19.75;;;9.48;;
29854;SDS011;16733;48.738;9.106;2022-09-25T04:55:27;16.85;;;10.02;;
29854;SDS011;16733;48.738;9.106;2022-09-25T04:57:53;16.42;;;9.55;;
29854;SDS011;16733;48.738;9.106;2022-09-25T05:00:20;18.17;;;9.85;;
29854;SDS011;16733;48.738;9.106;2022-09-25T05:02:46;17.33;;;9.60;;
29854;SDS011;16733;48.738;9.106;2022-09-25T05:05:12;16.73;;;9.30;;
29854;SDS011;16733;48.738;9.106;2022-09-25T05:11:01;15.63;;;8.85;;
29854;SDS011;16733;48.738;9.106;2022-09-25T05:13:27;18.13;;;9.13;;
29854;SDS011;16733;48.738;9.106;2022-09-25T05:15:54;20.20;;;9.48;;
29854;SDS011;16733;48.738;9.106;2022-09-25T05:18:39;19.42;;;8.98;;
29854;SDS011;16733;48.738;9.106;2022-09-25T05:21:05;15.52;;;8.82;;
29854;SDS011;16733;48.738;9.106;2022-09-25T05:23:30;15.90;;;8.48;;
29854;SDS011;16733;48.738;9.106;2022-09-25T05:25:56;20.17;;;9.05;;
29854;SDS011;16733;48.738;9.106;2022-09-25T05:28:24;16.15;;;8.93;;
29854;SDS011;16733;48.738;9.106;2022-09-25T05:31:27;14.32;;;8.13;;
29854;SDS011;16733;48.738;9.106;2022-09-25T05:33:53;14.73;;;8.43;;
29854;SDS011;16733;48.738;9.106;2022-09-25T05:36:19;14.18;;;8.38;;
29854;SDS011;16733;48.738;9.106;2022-09-25T05:38:44;15.30;;;8.25;;
29854;SDS011;16733;48.738;9.106;2022-09-25T05:44:32;14.88;;;8.23;;
29854;SDS011;16733;48.738;9.106;2022-09-25T05:46:58;17.45;;;7.88;;
29854;SDS011;16733;48.738;9.106;2022-09-25T05:52:53;13.18;;;7.07;;
29854;SDS011;16733;48.738;9.106;2022-09-25T05:55:19;13.15;;;7.38;;
29854;SDS011;16733;48.738;9.106;2022-09-25T05:57:45;13.70;;;6.43;;
29854;SDS011;16733;48.738;9.106;2022-09-25T06:00:11;14.27;;;6.93;;
29854;SDS011;16733;48.738;9.106;2022-09-25T06:02:37;11.25;;;6.85;;
29854;SDS011;16733;48.738;9.106;2022-09-25T06:05:03;12.65;;;6.90;;
29854;SDS011;16733;48.738;9.106;2022-09-25T06:07:29;11.85;;;7.20;;
29854;SDS011;16733;48.738;9.106;2022-09-25T06:09:54;13.80;;;7.70;;
29854;SDS011;16733;48.738;9.106;2022-09-25T06:15:42;11.45;;;7.05;;
29854;SDS011;16733;48.738;9.106;2022-09-25T06:18:07;14.27;;;7.35;;
29854;SDS011;16733;48.738;9.106;2022-09-25T06:23:55;17.23;;;9.20;;
29854;SDS011;16733;48.738;9.106;2022-09-25T06:26:21;19.42;;;9.27;;
29854;SDS011;16733;48.738;9.106;2022-09-25T06:28:49;13.68;;;7.93;;
29854;SDS011;16733;48.738;9.106;2022-09-25T06:31:52;14.93;;;8.20;;
29854;SDS011;16733;48.738;9.106;2022-09-25T06:34:18;15.45;;;8.38;;
29854;SDS011;16733;48.738;9.106;2022-09-25T06:36:44;12.55;;;8.05;;
29854;SDS011;16733;48.738;9.106;2022-09-25T06:39:09;11.40;;;7.13;;
29854;SDS011;16733;48.738;9.106;2022-09-25T06:41:35;13.82;;;6.78;;
29854;SDS011;16733;48.738;9.106;2022-09-25T06:44:00;14.70;;;6.65;;
29854;SDS011;16733;48.738;9.106;2022-09-25T06:46:26;14.07;;;8.40;;
29854;SDS011;16733;48.738;9.106;2022-09-25T06:48:53;12.10;;;7.22;;
29854;SDS011;16733;48.738;9.106;2022-09-25T06:51:19;12.13;;;7.35;;
29854;SDS011;16733;48.738;9.106;2022-09-25T06:53:46;13.80;;;7.07;;
29854;SDS011;16733;48.738;9.106;2022-09-25T06:56:12;12.00;;;7.10;;
29854;SDS011;16733;48.738;9.106;2022-09-25T06:58:38;10.85;;;6.82;;
29854;SDS011;16733;48.738;9.106;2022-09-25T07:04:25;13.02;;;6.93;;
29854;SDS011;16733;48.738;9.106;2022-09-25T07:10:13;10.38;;;6.53;;
29854;SDS011;16733;48.738;9.106;2022-09-25T07:16:05;20.58;;;8.50;;
29854;SDS011;16733;48.738;9.106;2022-09-25T07:18:33;15.82;;;7.60;;
29854;SDS011;16733;48.738;9.106;2022-09-25T07:24:21;13.30;;;7.00;;
29854;SDS011;16733;48.738;9.106;2022-09-25T07:26:46;11.40;;;6.57;;
29854;SDS011;16733;48.738;9.106;2022-09-25T07:29:12;13.68;;;7.03;;
29854;SDS011;16733;48.738;9.106;2022-09-25T07:31:37;10.32;;;6.57;;
29854;SDS011;16733;48.738;9.106;2022-09-25T07:34:03;11.00;;;6.78;;
29854;SDS011;16733;48.738;9.106;2022-09-25T07:36:37;18.92;;;7.30;;
29854;SDS011;16733;48.738;9.106;2022-09-25T07:39:04;11.27;;;6.82;;
29854;SDS011;16733;48.738;9.106;2022-09-25T07:41:30;10.98;;;6.82;;
29854;SDS011;16733;48.738;9.106;2022-09-25T07:47:18;11.65;;;6.97;;
29854;SDS011;16733;48.738;9.106;2022-09-25T07:49:44;13.32;;;7.03;;
29854;SDS011;16733;48.738;9.106;2022-09-25T07:52:10;11.82;;;6.55;;
29854;SDS011;16733;48.738;9.106;2022-09-25T07:58:55;8.95;;;6.00;;
29854;SDS011;16733;48.738;9.106;2022-09-25T08:01:20;11.43;;;6.38;;
29854;SDS011;16733;48.738;9.106;2022-09-25T08:03:46;12.32;;;6.07;;
29854;SDS011;16733;48.738;9.106;2022-09-25T08:06:13;12.52;;;6.03;;
29854;SDS011;16733;48.738;9.106;2022-09-25T08:08:39;10.10;;;5.68;;
29854;SDS011;16733;48.738;9.106;2022-09-25T08:11:06;16.35;;;7.10;;
29854;SDS011;16733;48.738;9.106;2022-09-25T08:13:37;12.43;;;6.63;;
29854;SDS011;16733;48.738;9.106;2022-09-25T08:16:04;10.00;;;6.07;;
29854;SDS011;16733;48.738;9.106;2022-09-25T08:18:31;9.93;;;5.75;;
29854;SDS011;16733;48.738;9.106;2022-09-25T08:21:00;9.00;;;5.07;;
29854;SDS011;16733;48.738;9.106;2022-09-25T08:23:27;13.15;;;5.68;;
29854;SDS011;16733;48.738;9.106;2022-09-25T08:25:52;9.57;;;5.57;;
29854;SDS011;16733;48.738;9.106;2022-09-25T08:31:40;8.27;;;5.13;;
29854;SDS011;16733;48.738;9.106;2022-09-25T08:37:28;8.50;;;4.93;;
29854;SDS011;16733;48.738;9.106;2022-09-25T08:39:56;8.75;;;4.80;;
29854;SDS011;16733;48.738;9.106;2022-09-25T08:42:33;8.68;;;4.55;;
29854;SDS011;16733;48.738;9.106;2022-09-25T08:45:02;9.75;;;4.95;;
29854;SDS011;16733;48.738;9.106;2022-09-25T08:47:50;7.28;;;4.47;;
29854;SDS011;16733;48.738;9.106;2022-09-25T08:53:57;7.90;;;4.75;;
29854;SDS011;16733;48.738;9.106;2022-09-25T08:56:26;8.35;;;4.88;;
29854;SDS011;16733;48.738;9.106;2022-09-25T09:01:48;6.78;;;4.10;;
29854;SDS011;16733;48.738;9.106;2022-09-25T09:04:22;7.32;;;4.65;;
29854;SDS011;16733;48.738;9.106;2022-09-25T09:06:54;9.73;;;4.80;;
29854;SDS011;16733;48.738;9.106;2022-09-25T09:12:46;6.43;;;3.80;;
29854;SDS011;16733;48.738;9.106;2022-09-25T09:15:21;6.40;;;3.88;;
29854;SDS011;16733;48.738;9.106;2022-09-25T09:18:18;9.57;;;4.70;;
29854;SDS011;16733;48.738;9.106;2022-09-25T09:20:59;6.05;;;4.10;;
29854;SDS011;16733;48.738;9.106;2022-09-25T09:49:12;9.40;;;4.40;;
29854;SDS011;16733;48.738;9.106;2022-09-25T09:54:47;6.55;;;4.13;;
29854;SDS011;16733;48.738;9.106;2022-09-25T09:57:19;9.57;;;4.15;;
29854;SDS011;16733;48.738;9.106;2022-09-25T09:59:54;7.47;;;4.18;;
29854;SDS011;16733;48.738;9.106;2022-09-25T10:02:36;7.30;;;4.43;;
29854;SDS011;16733;48.738;9.106;2022-09-25T10:05:15;6.10;;;4.03;;
29854;SDS011;16733;48.738;9.106;2022-09-25T10:07:41;5.07;;;3.67;;
29854;SDS011;16733;48.738;9.106;2022-09-25T10:10:10;5.32;;;3.70;;
29854;SDS011;16733;48.738;9.106;2022-09-25T10:12:38;9.85;;;3.83;;
29854;SDS011;16733;48.738;9.106;2022-09-25T10:15:38;5.15;;;3.72;;
29854;SDS011;16733;48.738;9.106;2022-09-25T10:21:32;7.72;;;4.55;;
29854;SDS011;16733;48.738;9.106;2022-09-25T10:24:04;6.65;;;4.35;;
29854;SDS011;16733;48.738;9.106;2022-09-25T10:26:32;9.32;;;4.53;;
29854;SDS011;16733;48.738;9.106;2022-09-25T10:29:00;9.35;;;4.47;;
29854;SDS011;16733;48.738;9.106;2022-09-25T10:31:29;7.20;;;4.25;;
29854;SDS011;16733;48.738;9.106;2022-09-25T10:33:58;11.57;;;4.47;;
29854;SDS011;16733;48.738;9.106;2022-09-25T10:36:45;7.07;;;4.20;;
29854;SDS011;16733;48.738;9.106;2022-09-25T10:39:37;6.88;;;4.10;;
29854;SDS011;16733;48.738;9.106;2022-09-25T10:42:28;8.85;;;4.20;;
29854;SDS011;16733;48.738;9.106;2022-09-25T10:47:54;5.53;;;3.92;;
29854;SDS011;16733;48.738;9.106;2022-09-25T10:50:39;13.70;;;4.30;;
29854;SDS011;16733;48.738;9.106;2022-09-25T10:53:10;9.93;;;4.60;;
29854;SDS011;16733;48.738;9.106;2022-09-25T10:56:29;7.13;;;4.15;;
29854;SDS011;16733;48.738;9.106;2022-09-25T10:59:02;7.47;;;4.32;;
29854;SDS011;16733;48.738;9.106;2022-09-25T11:01:53;8.50;;;4.32;;
29854;SDS011;16733;48.738;9.106;2022-09-25T11:04:29;6.72;;;3.90;;
29854;SDS011;16733;48.738;9.106;2022-09-25T11:06:59;7.13;;;3.97;;
29854;SDS011;16733;48.738;9.106;2022-09-25T11:09:29;9.23;;;4.28;;
29854;SDS011;16733;48.738;9.106;2022-09-25T11:12:16;7.30;;;4.60;;
29854;SDS011;16733;48.738;9.106;2022-09-25T11:15:00;5.35;;;3.95;;
29854;SDS011;16733;48.738;9.106;2022-09-25T11:17:39;6.53;;;3.90;;
29854;SDS011;16733;48.738;9.106;2022-09-25T11:20:26;9.90;;;4.25;;
29854;SDS011;16733;48.738;9.106;2022-09-25T11:26:16;13.38;;;6.18;;
29854;SDS011;16733;48.738;9.106;2022-09-25T11:32:25;10.68;;;5.60;;
29854;SDS011;16733;48.738;9.106;2022-09-25T11:38:24;12.13;;;6.25;;
29854;SDS011;16733;48.738;9.106;2022-09-25T11:42:04;10.90;;;6.03;;
29854;SDS011;16733;48.738;9.106;2022-09-25T11:44:21;13.82;;;6.68;;
29854;SDS011;16733;48.738;9.106;2022-09-25T11:47:02;12.45;;;6.78;;
29854;SDS011;16733;48.738;9.106;2022-09-25T11:53:14;16.92;;;9.55;;
29854;SDS011;16733;48.738;9.106;2022-09-25T11:55:58;13.73;;;8.45;;
29854;SDS011;16733;48.738;9.106;2022-09-25T12:02:00;18.23;;;10.25;;
29854;SDS011;16733;48.738;9.106;2022-09-25T12:04:45;19.30;;;10.23;;
29854;SDS011;16733;48.738;9.106;2022-09-25T12:09:54;17.83;;;10.02;;
29854;SDS011;16733;48.738;9.106;2022-09-25T12:21:47;17.17;;;10.15;;
29854;SDS011;16733;48.738;9.106;2022-09-25T12:33:11;16.55;;;9.25;;
29854;SDS011;16733;48.738;9.106;2022-09-25T12:44:17;14.02;;;9.00;;
29854;SDS011;16733;48.738;9.106;2022-09-25T12:47:07;14.48;;;8.57;;
29854;SDS011;16733;48.738;9.106;2022-09-25T12:49:57;17.83;;;8.90;;
29854;SDS011;16733;48.738;9.106;2022-09-25T13:00:50;12.80;;;7.50;;
29854;SDS011;16733;48.738;9.106;2022-09-25T13:03:28;11.70;;;7.18;;
29854;SDS011;16733;48.738;9.106;2022-09-25T13:06:20;17.80;;;9.30;;
29854;SDS011;16733;48.738;9.106;2022-09-25T13:12:38;17.48;;;10.45;;
29854;SDS011;16733;48.738;9.106;2022-09-25T13:15:05;15.25;;;9.02;;
29854;SDS011;16733;48.738;9.106;2022-09-25T13:17:36;16.35;;;9.60;;
29854;SDS011;16733;48.738;9.106;2022-09-25T13:22:50;14.55;;;8.68;;
29854;SDS011;16733;48.738;9.106;2022-09-25T13:25:16;16.30;;;8.38;;
29854;SDS011;16733;48.738;9.106;2022-09-25T13:31:09;13.75;;;7.78;;
29854;SDS011;16733;48.738;9.106;2022-09-25T13:33:47;13.60;;;8.37;;
29854;SDS011;16733;48.738;9.106;2022-09-25T13:42:05;14.13;;;7.60;;
29854;SDS011;16733;48.738;9.106;2022-09-25T13:53:57;12.55;;;7.90;;
29854;SDS011;16733;48.738;9.106;2022-09-25T14:01:39;14.27;;;6.43;;
29854;SDS011;16733;48.738;9.106;2022-09-25T14:10:24;10.23;;;6.72;;
29854;SDS011;16733;48.738;9.106;2022-09-25T14:12:51;11.73;;;6.95;;
29854;SDS011;16733;48.738;9.106;2022-09-25T14:15:22;14.65;;;6.95;;
29854;SDS011;16733;48.738;9.106;2022-09-25T14:21:11;12.45;;;6.97;;
29854;SDS011;16733;48.738;9.106;2022-09-25T14:23:47;15.88;;;7.03;;
29854;SDS011;16733;48.738;9.106;2022-09-25T14:26:16;15.82;;;7.28;;
29854;SDS011;16733;48.738;9.106;2022-09-25T14:28:46;11.02;;;5.57;;
29854;SDS011;16733;48.738;9.106;2022-09-25T14:47:38;11.10;;;6.07;;
29854;SDS011;16733;48.738;9.106;2022-09-25T14:50:09;10.40;;;5.40;;
29854;SDS011;16733;48.738;9.106;2022-09-25T14:52:45;9.32;;;5.38;;
29854;SDS011;16733;48.738;9.106;2022-09-25T14:58:39;10.68;;;4.70;;
29854;SDS011;16733;48.738;9.106;2022-09-25T15:01:12;10.43;;;4.47;;
29854;SDS011;16733;48.738;9.106;2022-09-25T15:03:43;7.47;;;4.75;;
29854;SDS011;16733;48.738;9.106;2022-09-25T15:06:11;10.70;;;4.93;;
29854;SDS011;16733;48.738;9.106;2022-09-25T15:08:38;9.50;;;4.93;;
29854;SDS011;16733;48.738;9.106;2022-09-25T15:11:09;7.70;;;5.00;;
29854;SDS011;16733;48.738;9.106;2022-09-25T15:13:40;8.23;;;4.35;;
29854;SDS011;16733;48.738;9.106;2022-09-25T15:16:11;7.65;;;4.07;;
29854;SDS011;16733;48.738;9.106;2022-09-25T15:18:59;9.77;;;4.72;;
29854;SDS011;16733;48.738;9.106;2022-09-25T15:21:30;8.07;;;4.22;;
29854;SDS011;16733;48.738;9.106;2022-09-25T15:24:46;7.70;;;4.88;;
29854;SDS011;16733;48.738;9.106;2022-09-25T15:27:21;10.77;;;5.07;;
29854;SDS011;16733;48.738;9.106;2022-09-25T15:29:47;6.78;;;4.50;;
29854;SDS011;16733;48.738;9.106;2022-09-25T15:38:37;8.40;;;5.28;;
29854;SDS011;16733;48.738;9.106;2022-09-25T15:41:07;12.60;;;5.25;;
29854;SDS011;16733;48.738;9.106;2022-09-25T15:43:36;11.90;;;5.45;;
29854;SDS011;16733;48.738;9.106;2022-09-25T15:48:30;11.25;;;5.38;;
29854;SDS011;16733;48.738;9.106;2022-09-25T15:50:59;9.20;;;5.70;;
29854;SDS011;16733;48.738;9.106;2022-09-25T15:56:53;9.05;;;4.82;;
29854;SDS011;16733;48.738;9.106;2022-09-25T15:59:41;9.55;;;5.57;;
29854;SDS011;16733;48.738;9.106;2022-09-25T16:02:28;11.20;;;5.95;;
29854;SDS011;16733;48.738;9.106;2022-09-25T16:05:15;10.30;;;5.18;;
29854;SDS011;16733;48.738;9.106;2022-09-25T16:07:45;8.52;;;5.20;;
29854;SDS011;16733;48.738;9.106;2022-09-25T16:12:43;8.15;;;4.82;;
29854;SDS011;16733;48.738;9.106;2022-09-25T16:17:56;9.93;;;4.63;;
29854;SDS011;16733;48.738;9.106;2022-09-25T16:20:30;6.93;;;4.53;;
29854;SDS011;16733;48.738;9.106;2022-09-25T16:26:41;7.65;;;4.63;;
29854;SDS011;16733;48.738;9.106;2022-09-25T16:32:30;7.53;;;4.80;;
29854;SDS011;16733;48.738;9.106;2022-09-25T16:37:25;10.57;;;4.70;;
29854;SDS011;16733;48.738;9.106;2022-09-25T16:42:48;9.40;;;5.28;;
29854;SDS011;16733;48.738;9.106;2022-09-25T16:45:33;7.03;;;5.00;;
29854;SDS011;16733;48.738;9.106;2022-09-25T16:48:41;8.13;;;4.82;;
29854;SDS011;16733;48.738;9.106;2022-09-25T16:51:21;8.23;;;4.63;;
29854;SDS011;16733;48.738;9.106;2022-09-25T16:53:48;7.55;;;4.78;;
29854;SDS011;16733;48.738;9.106;2022-09-25T16:56:24;10.60;;;3.90;;
29854;SDS011;16733;48.738;9.106;2022-09-25T16:58:53;6.07;;;3.97;;
29854;SDS011;16733;48.738;9.106;2022-09-25T17:01:20;5.10;;;3.40;;
29854;SDS011;16733;48.738;9.106;2022-09-25T17:03:47;4.60;;;3.35;;
29854;SDS011;16733;48.738;9.106;2022-09-25T17:06:19;10.60;;;3.40;;
29854;SDS011;16733;48.738;9.106;2022-09-25T17:08:47;5.30;;;3.40;;
29854;SDS011;16733;48.738;9.106;2022-09-25T17:11:14;5.28;;;3.22;;
29854;SDS011;16733;48.738;9.106;2022-09-25T17:13:41;4.93;;;3.60;;
29854;SDS011;16733;48.738;9.106;2022-09-25T17:16:08;4.07;;;2.90;;
29854;SDS011;16733;48.738;9.106;2022-09-25T17:18:34;4.13;;;3.05;;
29854;SDS011;16733;48.738;9.106;2022-09-25T17:24:29;4.15;;;2.65;;
29854;SDS011;16733;48.738;9.106;2022-09-25T17:26:55;4.45;;;2.97;;
29854;SDS011;16733;48.738;9.106;2022-09-25T17:32:42;4.20;;;3.03;;
29854;SDS011;16733;48.738;9.106;2022-09-25T17:35:26;5.50;;;3.47;;
29854;SDS011;16733;48.738;9.106;2022-09-25T17:37:59;4.88;;;2.97;;
29854;SDS011;16733;48.738;9.106;2022-09-25T17:40:26;5.03;;;3.38;;
29854;SDS011;16733;48.738;9.106;2022-09-25T17:42:52;4.85;;;3.55;;
29854;SDS011;16733;48.738;9.106;2022-09-25T17:45:26;5.88;;;3.90;;
29854;SDS011;16733;48.738;9.106;2022-09-25T17:47:56;7.20;;;4.50;;
29854;SDS011;16733;48.738;9.106;2022-09-25T17:53:44;6.85;;;4.43;;
29854;SDS011;16733;48.738;9.106;2022-09-25T17:56:13;7.10;;;4.55;;
29854;SDS011;16733;48.738;9.106;2022-09-25T17:58:38;5.78;;;4.45;;
29854;SDS011;16733;48.738;9.106;2022-09-25T18:01:12;7.57;;;4.20;;
29854;SDS011;16733;48.738;9.106;2022-09-25T18:03:46;7.68;;;4.97;;
29854;SDS011;16733;48.738;9.106;2022-09-25T18:06:15;7.43;;;4.63;;
29854;SDS011;16733;48.738;9.106;2022-09-25T18:08:41;7.60;;;5.38;;
29854;SDS011;16733;48.738;9.106;2022-09-25T18:11:08;8.25;;;5.35;;
29854;SDS011;16733;48.738;9.106;2022-09-25T18:13:36;7.47;;;5.00;;
29854;SDS011;16733;48.738;9.106;2022-09-25T18:16:01;8.23;;;5.28;;
29854;SDS011;16733;48.738;9.106;2022-09-25T18:18:28;7.40;;;5.35;;
29854;SDS011;16733;48.738;9.106;2022-09-25T18:21:14;8.05;;;5.55;;
29854;SDS011;16733;48.738;9.106;2022-09-25T18:24:02;8.45;;;5.28;;
29854;SDS011;16733;48.738;9.106;2022-09-25T18:26:28;9.35;;;5.63;;
29854;SDS011;16733;48.738;9.106;2022-09-25T18:28:57;8.52;;;5.57;;
29854;SDS011;16733;48.738;9.106;2022-09-25T18:31:22;8.02;;;5.38;;
29854;SDS011;16733;48.738;9.106;2022-09-25T18:33:49;8.70;;;5.68;;
29854;SDS011;16733;48.738;9.106;2022-09-25T18:36:18;8.52;;;5.65;;
29854;SDS011;16733;48.738;9.106;2022-09-25T18:38:44;9.88;;;6.60;;
29854;SDS011;16733;48.738;9.106;2022-09-25T18:41:10;10.98;;;6.38;;
29854;SDS011;16733;48.738;9.106;2022-09-25T18:43:37;12.13;;;6.70;;
29854;SDS011;16733;48.738;9.106;2022-09-25T18:46:03;11.88;;;6.30;;
29854;SDS011;16733;48.738;9.106;2022-09-25T18:51:50;10.70;;;6.57;;
29854;SDS011;16733;48.738;9.106;2022-09-25T18:54:16;10.90;;;6.30;;
29854;SDS011;16733;48.738;9.106;2022-09-25T18:56:42;10.25;;;7.07;;
29854;SDS011;16733;48.738;9.106;2022-09-25T18:59:07;12.25;;;7.47;;
29854;SDS011;16733;48.738;9.106;2022-09-25T19:01:33;9.43;;;6.50;;
29854;SDS011;16733;48.738;9.106;2022-09-25T19:03:59;10.07;;;6.22;;
29854;SDS011;16733;48.738;9.106;2022-09-25T19:06:25;17.83;;;6.57;;
29854;SDS011;16733;48.738;9.106;2022-09-25T19:08:51;10.45;;;6.65;;
29854;SDS011;16733;48.738;9.106;2022-09-25T19:11:19;9.82;;;6.25;;
29854;SDS011;16733;48.738;9.106;2022-09-25T19:14:00;9.57;;;6.13;;
29854;SDS011;16733;48.738;9.106;2022-09-25T19:16:28;13.48;;;7.80;;
29854;SDS011;16733;48.738;9.106;2022-09-25T19:18:54;10.40;;;6.38;;
29854;SDS011;16733;48.738;9.106;2022-09-25T19:21:20;15.85;;;7.13;;
29854;SDS011;16733;48.738;9.106;2022-09-25T19:23:46;12.30;;;6.43;;
29854;SDS011;16733;48.738;9.106;2022-09-25T19:26:13;14.20;;;7.82;;
29854;SDS011;16733;48.738;9.106;2022-09-25T19:28:42;13.52;;;8.25;;
29854;SDS011;16733;48.738;9.106;2022-09-25T19:31:13;12.43;;;8.00;;
29854;SDS011;16733;48.738;9.106;2022-09-25T19:33:40;17.02;;;8.13;;
29854;SDS011;16733;48.738;9.106;2022-09-25T19:36:07;14.55;;;8.50;;
29854;SDS011;16733;48.738;9.106;2022-09-25T19:38:40;16.55;;;8.25;;
29854;SDS011;16733;48.738;9.106;2022-09-25T19:41:26;17.98;;;8.57;;
29854;SDS011;16733;48.738;9.106;2022-09-25T19:43:54;15.77;;;8.38;;
29854;SDS011;16733;48.738;9.106;2022-09-25T19:46:21;14.55;;;7.75;;
29854;SDS011;16733;48.738;9.106;2022-09-25T19:48:47;20.20;;;9.05;;
29854;SDS011;16733;48.738;9.106;2022-09-25T19:54:35;12.48;;;7.00;;
29854;SDS011;16733;48.738;9.106;2022-09-25T19:57:01;15.00;;;7.30;;
29854;SDS011;16733;48.738;9.106;2022-09-25T20:02:49;12.95;;;7.63;;
29854;SDS011;16733;48.738;9.106;2022-09-25T20:05:14;16.30;;;7.30;;
29854;SDS011;16733;48.738;9.106;2022-09-25T20:07:41;13.90;;;7.90;;
29854;SDS011;16733;48.738;9.106;2022-09-25T20:10:06;15.27;;;6.93;;
29854;SDS011;16733;48.738;9.106;2022-09-25T20:12:32;12.82;;;7.15;;
29854;SDS011;16733;48.738;9.106;2022-09-25T20:14:58;14.45;;;7.28;;
29854;SDS011;16733;48.738;9.106;2022-09-25T20:17:23;11.30;;;6.85;;
29854;SDS011;16733;48.738;9.106;2022-09-25T20:19:49;11.65;;;6.53;;
29854;SDS011;16733;48.738;9.106;2022-09-25T20:25:36;14.00;;;7.07;;
29854;SDS011;16733;48.738;9.106;2022-09-25T20:28:02;12.68;;;6.82;;
29854;SDS011;16733;48.738;9.106;2022-09-25T20:30:27;17.33;;;7.07;;
29854;SDS011;16733;48.738;9.106;2022-09-25T20:32:53;16.08;;;6.82;;
29854;SDS011;16733;48.738;9.106;2022-09-25T20:35:19;15.80;;;7.65;;
29854;SDS011;16733;48.738;9.106;2022-09-25T20:37:45;13.43;;;7.32;;